Time,TemperatureF,DewpointF,PressureIn,WindDirection,WindDirectionDegrees,WindSpeedMPH,WindSpeedGustMPH,Humidity,HourlyPrecipIn,Conditions,Clouds,dailyrainin,SoftwareType,DateUTC
2013-02-02 00:01:00,19.0,13.0,-100.00,ESE,117,0.0,2.0,76,-99.99,,,-99.99,,2013-02-02 07:01:00,
2013-02-02 00:11:00,18.0,13.0,-100.00,NE,55,3.0,3.0,77,-99.99,,,-99.99,,2013-02-02 07:11:00,
2013-02-02 00:21:00,18.0,13.0,-100.00,NE,55,3.0,3.0,77,-99.99,,,-99.99,,2013-02-02 07:21:00,
2013-02-02 00:31:00,18.0,12.0,-100.00,SE,135,2.0,5.0,79,-99.99,,,-99.99,,2013-02-02 07:31:00,
2013-02-02 00:41:00,16.0,10.0,-100.00,NE,52,2.0,3.0,79,-99.99,,,-99.99,,2013-02-02 07:41:00,
2013-02-02 00:51:00,16.0,10.0,-100.00,NE,52,2.0,3.0,79,-99.99,,,-99.99,,2013-02-02 07:51:00,
2013-02-02 01:01:00,16.0,11.0,-100.00,ENE,77,0.0,2.0,81,-99.99,,,-99.99,,2013-02-02 08:01:00,
2013-02-02 01:11:00,16.0,11.0,-100.00,ENE,77,0.0,2.0,81,-99.99,,,-99.99,,2013-02-02 08:11:00,
2013-02-02 01:21:00,16.0,11.0,-100.00,ENE,77,0.0,2.0,81,-99.99,,,-99.99,,2013-02-02 08:21:00,
2013-02-02 01:31:00,16.0,11.0,-100.00,NE,51,1.0,2.0,81,-99.99,,,-99.99,,2013-02-02 08:31:00,
2013-02-02 01:41:00,15.0,10.0,-100.00,NE,56,0.0,1.0,81,-99.99,,,-99.99,,2013-02-02 08:41:00,
2013-02-02 01:52:00,15.0,10.0,-100.00,NE,56,0.0,1.0,81,-99.99,,,-99.99,,2013-02-02 08:52:00,
2013-02-02 02:01:00,15.0,10.0,-100.00,NE,56,0.0,1.0,81,-99.99,,,-99.99,,2013-02-02 09:01:00,
2013-02-02 02:11:00,13.0,9.0,-100.00,East,93,4.0,5.0,85,-99.99,,,-99.99,,2013-02-02 09:11:00,
2013-02-02 02:22:00,13.0,9.0,-100.00,East,93,4.0,5.0,85,-99.99,,,-99.99,,2013-02-02 09:22:00,
2013-02-02 02:41:00,12.0,8.0,-100.00,ENE,74,2.0,5.0,85,-99.99,,,-99.99,,2013-02-02 09:41:00,
2013-02-02 02:51:00,12.0,8.0,-100.00,ENE,74,2.0,5.0,85,-99.99,,,-99.99,,2013-02-02 09:51:00,
2013-02-02 03:01:00,11.0,8.0,-100.00,East,84,3.0,4.0,86,-99.99,,,-99.99,,2013-02-02 10:01:00,
2013-02-02 03:11:00,12.0,9.0,-100.00,NE,56,1.0,4.0,87,-99.99,,,-99.99,,2013-02-02 10:11:00,
2013-02-02 03:21:00,12.0,9.0,-100.00,NE,56,1.0,4.0,87,-99.99,,,-99.99,,2013-02-02 10:21:00,
2013-02-02 03:31:00,12.0,9.0,-100.00,NE,56,1.0,4.0,87,-99.99,,,-99.99,,2013-02-02 10:31:00,
2013-02-02 03:41:00,11.0,9.0,-100.00,East,101,2.0,2.0,88,-99.99,,,-99.99,,2013-02-02 10:41:00,
2013-02-02 03:51:00,11.0,9.0,-100.00,East,101,2.0,2.0,88,-99.99,,,-99.99,,2013-02-02 10:51:00,
2013-02-02 04:01:00,11.0,9.0,-100.00,East,101,2.0,2.0,88,-99.99,,,-99.99,,2013-02-02 11:01:00,
2013-02-02 04:11:00,12.0,9.0,-100.00,East,92,2.0,3.0,88,-99.99,,,-99.99,,2013-02-02 11:11:00,
2013-02-02 04:21:00,12.0,9.0,-100.00,East,99,3.0,4.0,88,-99.99,,,-99.99,,2013-02-02 11:21:00,
2013-02-02 04:31:00,9.0,6.0,-100.00,ENE,73,2.0,4.0,86,-99.99,,,-99.99,,2013-02-02 11:31:00,
2013-02-02 04:41:00,9.0,6.0,-100.00,NE,55,1.0,5.0,88,-99.99,,,-99.99,,2013-02-02 11:41:00,
2013-02-02 04:52:00,9.0,6.0,-100.00,NE,55,1.0,5.0,88,-99.99,,,-99.99,,2013-02-02 11:52:00,
2013-02-02 05:01:00,9.0,6.0,-100.00,NE,55,1.0,5.0,88,-99.99,,,-99.99,,2013-02-02 12:01:00,
2013-02-02 05:11:00,8.0,6.0,-100.00,East,88,3.0,4.0,88,-99.99,,,-99.99,,2013-02-02 12:11:00,
2013-02-02 05:32:00,9.0,6.0,-100.00,East,88,4.0,5.0,88,-99.99,,,-99.99,,2013-02-02 12:32:00,
2013-02-02 05:42:00,8.0,5.0,-100.00,East,94,1.0,4.0,87,-99.99,,,-99.99,,2013-02-02 12:42:00,
2013-02-02 05:52:00,8.0,5.0,-100.00,ENE,74,3.0,5.0,88,-99.99,,,-99.99,,2013-02-02 12:52:00,
2013-02-02 06:02:00,7.0,5.0,-100.00,NE,50,4.0,5.0,88,-99.99,,,-99.99,,2013-02-02 13:02:00,
2013-02-02 06:11:00,8.0,6.0,-100.00,ENE,74,1.0,4.0,88,-99.99,,,-99.99,,2013-02-02 13:11:00,
2013-02-02 06:21:00,8.0,6.0,-100.00,ENE,74,1.0,4.0,88,-99.99,,,-99.99,,2013-02-02 13:21:00,
2013-02-02 06:32:00,8.0,5.0,-100.00,ENE,71,4.0,4.0,88,-99.99,,,-99.99,,2013-02-02 13:32:00,
2013-02-02 06:42:00,8.0,5.0,-100.00,ENE,71,4.0,4.0,88,-99.99,,,-99.99,,2013-02-02 13:42:00,
2013-02-02 06:51:00,9.0,7.0,-100.00,ESE,108,3.0,5.0,89,-99.99,,,-99.99,,2013-02-02 13:51:00,
2013-02-02 07:02:00,9.0,6.0,-100.00,East,90,3.0,3.0,89,-99.99,,,-99.99,,2013-02-02 14:02:00,
2013-02-02 07:11:00,10.0,7.0,-100.00,ESE,105,2.0,3.0,88,-99.99,,,-99.99,,2013-02-02 14:11:00,
2013-02-02 07:22:00,10.0,7.0,-100.00,ESE,105,2.0,3.0,88,-99.99,,,-99.99,,2013-02-02 14:22:00,
2013-02-02 07:32:00,9.0,6.0,-100.00,ESE,109,3.0,5.0,88,-99.99,,,-99.99,,2013-02-02 14:32:00,
2013-02-02 07:42:00,9.0,6.0,-100.00,ESE,109,3.0,5.0,88,-99.99,,,-99.99,,2013-02-02 14:42:00,
2013-02-02 07:52:00,9.0,6.0,-100.00,East,89,3.0,4.0,88,-99.99,,,-99.99,,2013-02-02 14:52:00,
2013-02-02 08:02:00,7.0,5.0,-100.00,East,99,5.0,5.0,89,-99.99,,,-99.99,,2013-02-02 15:02:00,
2013-02-02 08:11:00,9.0,6.0,-100.00,SE,134,5.0,5.0,89,-99.99,,,-99.99,,2013-02-02 15:11:00,
2013-02-02 08:21:00,9.0,6.0,-100.00,SE,134,5.0,5.0,89,-99.99,,,-99.99,,2013-02-02 15:21:00,
2013-02-02 08:32:00,8.0,5.0,-100.00,ENE,59,3.0,5.0,87,-99.99,,,-99.99,,2013-02-02 15:32:00,
2013-02-02 08:41:00,9.0,6.0,-100.00,ENE,64,5.0,5.0,87,-99.99,,,-99.99,,2013-02-02 15:41:00,
2013-02-02 08:51:00,9.0,6.0,-100.00,ENE,64,5.0,5.0,87,-99.99,,,-99.99,,2013-02-02 15:51:00,
2013-02-02 09:02:00,9.0,6.0,-100.00,ENE,64,5.0,5.0,87,-99.99,,,-99.99,,2013-02-02 16:02:00,
2013-02-02 09:11:00,11.0,8.0,-100.00,East,90,5.0,5.0,86,-99.99,,,-99.99,,2013-02-02 16:11:00,
2013-02-02 09:21:00,11.0,8.0,-100.00,East,90,5.0,5.0,86,-99.99,,,-99.99,,2013-02-02 16:21:00,
2013-02-02 09:31:00,15.0,12.0,-100.00,East,94,5.0,5.0,85,-99.99,,,-99.99,,2013-02-02 16:31:00,
2013-02-02 09:42:00,15.0,11.0,-100.00,ESE,103,6.0,6.0,84,-99.99,,,-99.99,,2013-02-02 16:42:00,
2013-02-02 09:51:00,15.0,11.0,-100.00,ESE,103,6.0,6.0,84,-99.99,,,-99.99,,2013-02-02 16:51:00,
2013-02-02 10:02:00,18.0,13.0,-100.00,ENE,72,2.0,6.0,80,-99.99,,,-99.99,,2013-02-02 17:02:00,
2013-02-02 10:11:00,18.0,13.0,-100.00,ENE,72,2.0,6.0,80,-99.99,,,-99.99,,2013-02-02 17:11:00,
2013-02-02 10:21:00,18.0,13.0,-100.00,ENE,74,4.0,5.0,79,-99.99,,,-99.99,,2013-02-02 17:21:00,
2013-02-02 10:31:00,20.0,14.0,-100.00,ESE,108,4.0,5.0,77,-99.99,,,-99.99,,2013-02-02 17:31:00,
2013-02-02 10:41:00,20.0,14.0,-100.00,East,100,4.0,6.0,76,-99.99,,,-99.99,,2013-02-02 17:41:00,
2013-02-02 10:52:00,20.0,14.0,-100.00,East,100,4.0,6.0,76,-99.99,,,-99.99,,2013-02-02 17:52:00,
2013-02-02 11:02:00,24.0,16.0,-100.00,ESE,102,5.0,5.0,71,-99.99,,,-99.99,,2013-02-02 18:02:00,
2013-02-02 11:11:00,26.0,18.0,-100.00,SE,129,4.0,6.0,69,-99.99,,,-99.99,,2013-02-02 18:11:00,
2013-02-02 11:21:00,26.0,18.0,-100.00,SE,129,4.0,6.0,69,-99.99,,,-99.99,,2013-02-02 18:21:00,
2013-02-02 11:31:00,27.0,18.0,-100.00,East,94,4.0,5.0,66,-99.99,,,-99.99,,2013-02-02 18:31:00,
2013-02-02 11:41:00,28.0,17.0,-100.00,East,91,4.0,4.0,64,-99.99,,,-99.99,,2013-02-02 18:41:00,
2013-02-02 11:52:00,28.0,17.0,-100.00,East,91,4.0,4.0,64,-99.99,,,-99.99,,2013-02-02 18:52:00,
2013-02-02 12:01:00,29.0,17.0,-100.00,ESE,108,4.0,5.0,62,-99.99,,,-99.99,,2013-02-02 19:01:00,
2013-02-02 12:11:00,30.0,18.0,-100.00,ESE,108,4.0,5.0,58,-99.99,,,-99.99,,2013-02-02 19:11:00,
2013-02-02 12:21:00,30.0,18.0,-100.00,ESE,108,4.0,5.0,58,-99.99,,,-99.99,,2013-02-02 19:21:00,
2013-02-02 12:31:00,32.0,18.0,-100.00,SE,125,4.0,5.0,57,-99.99,,,-99.99,,2013-02-02 19:31:00,
2013-02-02 12:41:00,32.0,18.0,-100.00,SE,125,4.0,5.0,57,-99.99,,,-99.99,,2013-02-02 19:41:00,
2013-02-02 12:51:00,33.0,18.0,-100.00,ESE,113,3.0,5.0,53,-99.99,,,-99.99,,2013-02-02 19:51:00,
2013-02-02 13:01:00,34.0,18.0,-100.00,ESE,104,4.0,5.0,52,-99.99,,,-99.99,,2013-02-02 20:01:00,
2013-02-02 13:11:00,34.0,18.0,-100.00,ESE,104,4.0,5.0,52,-99.99,,,-99.99,,2013-02-02 20:11:00,
2013-02-02 13:21:00,35.0,18.0,-100.00,ESE,105,5.0,6.0,50,-99.99,,,-99.99,,2013-02-02 20:21:00,
2013-02-02 13:32:00,35.0,18.0,-100.00,ESE,112,5.0,5.0,48,-99.99,,,-99.99,,2013-02-02 20:32:00,
2013-02-02 13:41:00,35.0,18.0,-100.00,ESE,112,5.0,5.0,48,-99.99,,,-99.99,,2013-02-02 20:41:00,
2013-02-02 13:52:00,36.0,17.0,-100.00,ESE,108,4.0,5.0,45,-99.99,,,-99.99,,2013-02-02 20:52:00,
2013-02-02 14:01:00,37.0,14.0,-100.00,East,79,2.0,5.0,37,-99.99,,,-99.99,,2013-02-02 21:01:00,
2013-02-02 14:11:00,38.0,13.0,-100.00,ESE,112,4.0,4.0,35,-99.99,,,-99.99,,2013-02-02 21:11:00,
2013-02-02 14:21:00,38.0,13.0,-100.00,ESE,112,4.0,4.0,35,-99.99,,,-99.99,,2013-02-02 21:21:00,
2013-02-02 14:32:00,38.0,13.0,-100.00,East,86,3.0,4.0,34,-99.99,,,-99.99,,2013-02-02 21:32:00,
2013-02-02 14:42:00,38.0,15.0,-100.00,East,94,4.0,5.0,37,-99.99,,,-99.99,,2013-02-02 21:42:00,
2013-02-02 14:51:00,38.0,15.0,-100.00,East,94,4.0,5.0,37,-99.99,,,-99.99,,2013-02-02 21:51:00,
2013-02-02 15:02:00,38.0,14.0,-100.00,East,85,3.0,5.0,36,-99.99,,,-99.99,,2013-02-02 22:02:00,
2013-02-02 15:11:00,39.0,13.0,-100.00,East,82,2.0,5.0,33,-99.99,,,-99.99,,2013-02-02 22:11:00,
2013-02-02 15:21:00,39.0,13.0,-100.00,East,82,2.0,5.0,33,-99.99,,,-99.99,,2013-02-02 22:21:00,
2013-02-02 15:32:00,42.0,15.0,-100.00,SSE,168,2.0,4.0,31,-99.99,,,-99.99,,2013-02-02 22:32:00,
2013-02-02 15:41:00,41.0,13.0,-100.00,WNW,298,4.0,6.0,32,-99.99,,,-99.99,,2013-02-02 22:41:00,
2013-02-02 15:51:00,41.0,13.0,-100.00,WNW,298,4.0,6.0,32,-99.99,,,-99.99,,2013-02-02 22:51:00,
2013-02-02 16:01:00,38.0,18.0,-100.00,WNW,290,9.0,11.0,43,-99.99,,,-99.99,,2013-02-02 23:01:00,
2013-02-02 16:11:00,37.0,18.0,-100.00,WNW,293,11.0,12.0,45,-99.99,,,-99.99,,2013-02-02 23:11:00,
2013-02-02 16:21:00,37.0,18.0,-100.00,WNW,293,11.0,12.0,45,-99.99,,,-99.99,,2013-02-02 23:21:00,
2013-02-02 16:32:00,37.0,18.0,-100.00,WNW,293,11.0,12.0,45,-99.99,,,-99.99,,2013-02-02 23:32:00,
2013-02-02 16:41:00,36.0,19.0,-100.00,WNW,298,12.0,15.0,50,-99.99,,,-99.99,,2013-02-02 23:41:00,
2013-02-02 16:52:00,36.0,19.0,-100.00,WNW,298,12.0,15.0,50,-99.99,,,-99.99,,2013-02-02 23:52:00,
2013-02-02 17:01:00,36.0,20.0,-100.00,WNW,287,9.0,12.0,51,-99.99,,,-99.99,,2013-02-03 00:01:00,
2013-02-02 17:11:00,36.0,20.0,-100.00,West,280,7.0,10.0,52,-99.99,,,-99.99,,2013-02-03 00:11:00,
2013-02-02 17:21:00,36.0,20.0,-100.00,West,280,7.0,10.0,52,-99.99,,,-99.99,,2013-02-03 00:21:00,
2013-02-02 17:31:00,35.0,20.0,-100.00,West,263,6.0,9.0,54,-99.99,,,-99.99,,2013-02-03 00:31:00,
2013-02-02 17:41:00,34.0,19.0,-100.00,West,266,6.0,8.0,55,-99.99,,,-99.99,,2013-02-03 00:41:00,
2013-02-02 17:51:00,34.0,19.0,-100.00,West,266,6.0,8.0,55,-99.99,,,-99.99,,2013-02-03 00:51:00,
2013-02-02 18:02:00,34.0,18.0,-100.00,WSW,254,5.0,7.0,52,-99.99,,,-99.99,,2013-02-03 01:02:00,
2013-02-02 18:11:00,32.0,19.0,-100.00,West,265,5.0,5.0,56,-99.99,,,-99.99,,2013-02-03 01:11:00,
2013-02-02 18:21:00,32.0,19.0,-100.00,West,265,5.0,5.0,56,-99.99,,,-99.99,,2013-02-03 01:21:00,
2013-02-02 18:32:00,32.0,19.0,-100.00,West,259,5.0,6.0,59,-99.99,,,-99.99,,2013-02-03 01:32:00,
2013-02-02 18:41:00,31.0,19.0,-100.00,WSW,257,4.0,6.0,61,-99.99,,,-99.99,,2013-02-03 01:41:00,
2013-02-02 18:51:00,31.0,19.0,-100.00,WSW,257,4.0,6.0,61,-99.99,,,-99.99,,2013-02-03 01:51:00,
2013-02-02 19:01:00,30.0,19.0,-100.00,West,262,4.0,6.0,63,-99.99,,,-99.99,,2013-02-03 02:01:00,
2013-02-02 19:11:00,30.0,19.0,-100.00,WSW,252,3.0,4.0,64,-99.99,,,-99.99,,2013-02-03 02:11:00,
2013-02-02 19:21:00,30.0,19.0,-100.00,WSW,252,3.0,4.0,64,-99.99,,,-99.99,,2013-02-03 02:21:00,
2013-02-02 19:31:00,28.0,19.0,-100.00,West,275,4.0,6.0,68,-99.99,,,-99.99,,2013-02-03 02:31:00,
2013-02-02 19:41:00,28.0,19.0,-100.00,West,262,5.0,7.0,68,-99.99,,,-99.99,,2013-02-03 02:41:00,
2013-02-02 19:52:00,28.0,19.0,-100.00,West,262,5.0,7.0,68,-99.99,,,-99.99,,2013-02-03 02:52:00,
2013-02-02 20:01:00,26.0,18.0,-100.00,NW,309,2.0,5.0,71,-99.99,,,-99.99,,2013-02-03 03:01:00,
2013-02-02 20:11:00,26.0,18.0,-100.00,WNW,288,3.0,3.0,72,-99.99,,,-99.99,,2013-02-03 03:11:00,
2013-02-02 20:21:00,26.0,18.0,-100.00,WNW,288,3.0,3.0,72,-99.99,,,-99.99,,2013-02-03 03:21:00,
2013-02-02 20:31:00,25.0,17.0,-100.00,North,0,0.0,2.0,72,-99.99,,,-99.99,,2013-02-03 03:31:00,
2013-02-02 20:41:00,24.0,17.0,-100.00,WNW,289,1.0,1.0,73,-99.99,,,-99.99,,2013-02-03 03:41:00,
2013-02-02 20:51:00,24.0,17.0,-100.00,WNW,289,1.0,1.0,73,-99.99,,,-99.99,,2013-02-03 03:51:00,
2013-02-02 21:01:00,24.0,17.0,-100.00,WNW,302,2.0,4.0,75,-99.99,,,-99.99,,2013-02-03 04:01:00,
2013-02-02 21:11:00,24.0,17.0,-100.00,WNW,302,2.0,4.0,75,-99.99,,,-99.99,,2013-02-03 04:11:00,
2013-02-02 21:21:00,24.0,17.0,-100.00,WNW,302,2.0,4.0,75,-99.99,,,-99.99,,2013-02-03 04:21:00,
2013-02-02 21:31:00,22.0,16.0,-100.00,NW,306,0.0,2.0,75,-99.99,,,-99.99,,2013-02-03 04:31:00,
2013-02-02 21:41:00,22.0,15.0,-100.00,NW,306,0.0,1.0,75,-99.99,,,-99.99,,2013-02-03 04:41:00,
2013-02-02 21:51:00,22.0,15.0,-100.00,NW,306,0.0,1.0,75,-99.99,,,-99.99,,2013-02-03 04:51:00,
2013-02-02 22:03:00,22.0,16.0,-100.00,North,0,0.0,1.0,76,-99.99,,,-99.99,,2013-02-03 05:03:00,
2013-02-02 22:11:00,21.0,14.0,-100.00,North,0,0.0,1.0,76,-99.99,,,-99.99,,2013-02-03 05:11:00,
2013-02-02 22:22:00,21.0,14.0,-100.00,North,0,0.0,1.0,76,-99.99,,,-99.99,,2013-02-03 05:22:00,
2013-02-02 22:32:00,21.0,15.0,-100.00,NW,307,2.0,2.0,77,-99.99,,,-99.99,,2013-02-03 05:32:00,
2013-02-02 22:41:00,21.0,15.0,-100.00,NW,307,2.0,2.0,77,-99.99,,,-99.99,,2013-02-03 05:41:00,
2013-02-02 22:52:00,20.0,14.0,-100.00,NW,307,0.0,2.0,77,-99.99,,,-99.99,,2013-02-03 05:52:00,
2013-02-02 23:02:00,21.0,15.0,-100.00,ENE,78,1.0,3.0,78,-99.99,,,-99.99,,2013-02-03 06:02:00,
2013-02-02 23:11:00,19.0,13.0,-100.00,East,99,2.0,3.0,76,-99.99,,,-99.99,,2013-02-03 06:11:00,
2013-02-02 23:21:00,19.0,13.0,-100.00,East,99,2.0,3.0,76,-99.99,,,-99.99,,2013-02-03 06:21:00,
2013-02-02 23:31:00,19.0,13.0,-100.00,East,99,2.0,3.0,76,-99.99,,,-99.99,,2013-02-03 06:31:00,
2013-02-02 23:41:00,19.0,14.0,-100.00,East,92,3.0,4.0,79,-99.99,,,-99.99,,2013-02-03 06:41:00,
2013-02-02 23:52:00,19.0,14.0,-100.00,East,92,3.0,4.0,79,-99.99,,,-99.99,,2013-02-03 06:52:00,